Alire, New Mexico
Current Conditions -  °F | °C
As of 10:55 AM on Tuesday 21 Oct 2014 (Local Time) from KLAM Reporting Station
Overcast Overcast  
Wind Chill: 49°   Ceiling: 3700
Heat Index: 49°   Visibility: 10mi
Dew Point: 49°   Wind: 0mph
Humidity: 100%   Direction: NA
Pressure: 30.25"   Gusts: NA
Location:  36.4765°N, 106.58°W
Report Text: KLAM 211655Z AUTO 00000KT 10SM SCT001 BKN037 OVC060 10/10 A3025 RMK AO2 T00970097
Loading
Personal Weather Stations






























Interactive Weather Map
Tropical Storm Tracking
New forecast layout! Learn more

10-Day Weather Forecast

Advertisements
Track Severe Weather on mobile